Terminal Aerodrome Forecast
Issued by NWS

Home | Current Version | Previous Version | Text Only | Print | Product List | Glossary On
Versions: 1 2 3 4 5 6 7 8 9 10 11 12 13 14 15 16
000
FTUS41 KBTV 311720
TAFMPV
TAF
KMPV 311720Z 3118/0118 27009G20KT P6SM BKN050
     FM010000 30005KT P6SM SCT040
     FM010600 VRB02KT 1SM BR BKN002
     FM011300 VRB05KT P6SM SKC=

USA.gov is the U.S. government's official web portal to all federal, state and local government web resources and services.